createdAt,value
2022-08-16T00:01:41.906Z,4.93
2022-08-16T00:04:10.280Z,5.10
2022-08-16T00:06:39.187Z,3.77
2022-08-16T00:09:10.770Z,4.20
2022-08-16T00:11:40.186Z,3.23
2022-08-16T00:14:13.900Z,5.17
2022-08-16T00:17:06.163Z,4.60
2022-08-16T00:19:41.502Z,6.77
2022-08-16T00:22:13.509Z,9.60
2022-08-16T00:24:44.607Z,5.60
2022-08-16T00:27:15.210Z,4.10
2022-08-16T00:29:46.872Z,6.07
2022-08-16T00:32:17.850Z,4.67
2022-08-16T00:34:53.295Z,3.63
2022-08-16T00:37:24.346Z,5.47
2022-08-16T00:39:57.099Z,4.07
2022-08-16T00:42:30.685Z,6.57
2022-08-16T00:45:08.394Z,4.93
2022-08-16T00:47:42.736Z,4.07
2022-08-16T00:50:21.591Z,4.97
2022-08-16T00:53:04.666Z,5.67
2022-08-16T00:55:38.087Z,3.93
2022-08-16T00:58:13.088Z,4.27
2022-08-16T01:00:54.288Z,7.33
2022-08-16T01:03:30.034Z,5.43
2022-08-16T01:05:58.965Z,4.70
2022-08-16T01:08:36.473Z,5.40
2022-08-16T01:11:06.487Z,6.50
2022-08-16T01:13:38.714Z,5.10
2022-08-16T01:16:12.896Z,6.53
2022-08-16T01:18:52.782Z,5.27
2022-08-16T01:21:33.895Z,4.90
2022-08-16T01:24:52.759Z,4.77
2022-08-16T01:27:17.510Z,5.77
2022-08-16T01:29:57.703Z,7.03
2022-08-16T01:32:34.048Z,4.20
2022-08-16T01:35:05.559Z,4.97
2022-08-16T01:37:42.515Z,5.27
2022-08-16T01:40:15.368Z,5.27
2022-08-16T01:42:47.980Z,7.07
2022-08-16T01:45:19.482Z,6.50
2022-08-16T01:47:51.155Z,4.10
2022-08-16T01:50:42.574Z,5.80
2022-08-16T01:53:14.144Z,4.30
2022-08-16T01:55:53.776Z,12.50
2022-08-16T01:58:23.973Z,5.07
2022-08-16T02:00:52.270Z,4.70
2022-08-16T02:03:24.312Z,7.63
2022-08-16T02:05:54.772Z,7.50
2022-08-16T02:08:33.697Z,7.07
2022-08-16T02:11:08.686Z,5.70
2022-08-16T02:13:36.939Z,5.67
2022-08-16T02:16:18.753Z,5.93
2022-08-16T02:18:47.993Z,7.60
2022-08-16T02:21:17.293Z,6.73
2022-08-16T02:24:00.121Z,5.10
2022-08-16T02:26:30.021Z,7.33
2022-08-16T02:29:02.704Z,6.77
2022-08-16T02:32:03.860Z,7.03
2022-08-16T02:34:20.312Z,6.70
2022-08-16T02:37:01.655Z,6.67
2022-08-16T02:39:30.264Z,6.27
2022-08-16T02:41:59.792Z,7.33
2022-08-16T02:44:28.600Z,8.47
2022-08-16T02:46:57.096Z,5.40
2022-08-16T02:49:32.328Z,8.50
2022-08-16T02:52:17.143Z,8.37
2022-08-16T02:54:55.320Z,7.57
2022-08-16T02:57:25.861Z,6.20
2022-08-16T02:59:55.120Z,5.90
2022-08-16T03:02:32.163Z,7.57
2022-08-16T03:05:00.716Z,8.53
2022-08-16T03:07:30.710Z,9.37
2022-08-16T03:10:06.573Z,6.93
2022-08-16T03:12:37.724Z,6.63
2022-08-16T03:15:07.134Z,9.30
2022-08-16T03:17:37.040Z,10.03
2022-08-16T03:20:21.575Z,6.87
2022-08-16T03:23:01.881Z,7.40
2022-08-16T03:25:44.020Z,9.00
2022-08-16T03:28:17.138Z,6.47
2022-08-16T03:30:48.829Z,10.27
2022-08-16T03:33:17.311Z,7.13
2022-08-16T03:35:48.255Z,6.60
2022-08-16T03:38:32.559Z,5.77
2022-08-16T03:41:04.056Z,7.27
2022-08-16T03:43:51.034Z,6.23
2022-08-16T03:46:47.997Z,5.10
2022-08-16T03:49:12.085Z,5.83
2022-08-16T03:51:41.548Z,8.77
2022-08-16T03:54:12.316Z,8.30
2022-08-16T03:56:57.972Z,7.83
2022-08-16T03:59:29.466Z,6.30
2022-08-16T04:01:58.344Z,9.50
2022-08-16T04:04:33.130Z,9.70
2022-08-16T04:07:03.889Z,8.23
2022-08-16T04:09:35.428Z,7.40
2022-08-16T04:12:11.191Z,8.10
2022-08-16T04:14:54.492Z,11.83
2022-08-16T04:17:22.569Z,9.77
2022-08-16T04:19:54.866Z,6.93
2022-08-16T04:22:27.714Z,7.40
2022-08-16T04:24:55.942Z,8.20
2022-08-16T04:27:29.048Z,6.47
2022-08-16T04:30:02.855Z,9.57
2022-08-16T04:32:31.895Z,7.93
2022-08-16T04:35:04.884Z,6.70
2022-08-16T04:37:42.265Z,8.83
2022-08-16T04:40:20.673Z,9.37
2022-08-16T04:42:50.713Z,8.40
2022-08-16T04:45:36.356Z,8.30
2022-08-16T04:48:06.081Z,8.67
2022-08-16T04:50:34.359Z,6.70
2022-08-16T04:53:02.904Z,8.60
2022-08-16T04:55:38.249Z,8.13
2022-08-16T04:58:45.326Z,8.67
2022-08-16T05:00:58.333Z,9.40
2022-08-16T05:03:26.779Z,8.20
2022-08-16T05:06:00.008Z,6.87
2022-08-16T05:08:34.316Z,8.00
2022-08-16T05:11:05.564Z,6.43
2022-08-16T05:13:40.590Z,10.17
2022-08-16T05:16:19.764Z,5.57
2022-08-16T05:18:53.084Z,7.53
2022-08-16T05:21:25.167Z,5.77
2022-08-16T05:24:00.387Z,9.63
2022-08-16T05:26:31.853Z,5.60
2022-08-16T05:29:04.511Z,11.07
2022-08-16T05:31:35.267Z,7.37
2022-08-16T05:34:04.930Z,8.43
2022-08-16T05:36:47.844Z,8.00
2022-08-16T05:39:20.865Z,6.93
2022-08-16T05:41:51.690Z,7.63
2022-08-16T05:44:22.940Z,10.23
2022-08-16T05:46:55.878Z,8.63
2022-08-16T05:49:24.391Z,7.40
2022-08-16T05:51:55.456Z,8.47
2022-08-16T05:54:26.121Z,10.17
2022-08-16T05:56:55.688Z,9.33
2022-08-16T05:59:24.654Z,10.53
2022-08-16T06:01:56.632Z,7.67
2022-08-16T06:04:36.189Z,10.47
2022-08-16T06:07:24.374Z,8.70
2022-08-16T06:09:53.710Z,8.73
2022-08-16T06:12:27.074Z,10.07
2022-08-16T06:14:59.301Z,10.90
2022-08-16T06:17:41.767Z,10.20
2022-08-16T06:20:18.581Z,9.07
2022-08-16T06:22:58.859Z,14.40
2022-08-16T06:25:36.408Z,14.37
2022-08-16T06:28:09.494Z,14.80
2022-08-16T06:30:43.774Z,10.53
2022-08-16T06:33:19.892Z,12.63
2022-08-16T06:35:55.158Z,11.27
2022-08-16T06:38:33.513Z,9.70
2022-08-16T06:41:05.631Z,14.40
2022-08-16T06:43:35.370Z,11.47
2022-08-16T06:46:05.713Z,11.40
2022-08-16T06:48:35.082Z,13.80
2022-08-16T06:51:05.601Z,9.60
2022-08-16T06:53:36.518Z,11.27
2022-08-16T06:56:14.846Z,10.47
2022-08-16T06:58:50.057Z,11.33
2022-08-16T07:01:23.027Z,9.17
2022-08-16T07:03:57.307Z,12.67
2022-08-16T07:06:26.461Z,9.83
2022-08-16T07:08:55.939Z,10.90
2022-08-16T07:11:46.212Z,11.90
2022-08-16T07:14:23.599Z,14.70
2022-08-16T07:16:57.826Z,18.40
2022-08-16T07:20:01.436Z,17.77
2022-08-16T07:22:37.995Z,10.20
2022-08-16T07:25:16.651Z,14.50
2022-08-16T07:27:45.264Z,9.77
2022-08-16T07:30:38.775Z,13.40
2022-08-16T07:33:07.473Z,14.67
2022-08-16T07:35:44.566Z,13.90
2022-08-16T07:38:20.094Z,10.20
2022-08-16T07:41:09.877Z,11.33
2022-08-16T07:43:40.524Z,17.77
2022-08-16T07:46:38.112Z,12.23
2022-08-16T07:49:03.222Z,13.00
2022-08-16T07:51:36.980Z,9.93
2022-08-16T07:54:10.829Z,8.97
2022-08-16T07:56:40.754Z,8.40
2022-08-16T07:59:08.953Z,11.93
2022-08-16T08:01:38.263Z,6.83
2022-08-16T08:04:12.919Z,9.73
2022-08-16T08:06:43.221Z,9.17
2022-08-16T08:09:11.499Z,7.83
2022-08-16T08:11:40.411Z,9.10
2022-08-16T08:14:29.397Z,8.60
2022-08-16T08:17:01.390Z,9.13
2022-08-16T08:19:29.849Z,7.50
2022-08-16T08:22:02.351Z,8.20
2022-08-16T08:24:37.766Z,8.70
2022-08-16T08:27:08.305Z,5.77
2022-08-16T08:29:40.174Z,10.23
2022-08-16T08:32:57.919Z,8.27
2022-08-16T08:35:03.237Z,8.33
2022-08-16T08:37:54.110Z,5.57
2022-08-16T08:40:27.353Z,10.17
2022-08-16T08:43:00.051Z,9.07
2022-08-16T08:45:48.072Z,6.07
2022-08-16T08:48:34.746Z,12.27
2022-08-16T08:51:05.502Z,5.70
2022-08-16T08:53:39.903Z,6.20
2022-08-16T08:56:22.877Z,9.77
2022-08-16T08:58:54.098Z,5.67
2022-08-16T09:01:43.192Z,10.37
2022-08-16T09:04:27.117Z,6.30
2022-08-16T09:06:55.926Z,6.23
2022-08-16T09:09:33.839Z,5.83
2022-08-16T09:12:06.372Z,5.43
2022-08-16T09:14:35.962Z,5.00
2022-08-16T09:17:11.564Z,6.67
2022-08-16T09:19:45.971Z,4.80
2022-08-16T09:22:20.021Z,5.17
2022-08-16T09:24:54.026Z,5.83
2022-08-16T09:27:56.607Z,8.53
2022-08-16T09:30:36.051Z,7.47
2022-08-16T09:33:12.737Z,8.87
2022-08-16T09:35:43.049Z,6.20
2022-08-16T09:38:31.246Z,4.93
2022-08-16T09:41:02.328Z,5.20
2022-08-16T09:43:58.768Z,5.70
2022-08-16T09:46:45.288Z,5.07
2022-08-16T09:49:08.474Z,4.47
2022-08-16T09:51:37.322Z,7.30
2022-08-16T09:54:17.124Z,4.37
2022-08-16T09:56:52.478Z,6.93
2022-08-16T09:59:23.027Z,6.97
2022-08-16T10:01:53.438Z,5.40
2022-08-16T10:04:30.213Z,5.43
2022-08-16T10:09:53.397Z,7.23
2022-08-16T10:12:44.482Z,6.70
2022-08-16T10:15:15.667Z,3.57
2022-08-16T10:17:45.581Z,8.20
2022-08-16T10:20:41.944Z,3.67
2022-08-16T10:23:17.528Z,4.57
2022-08-16T10:27:18.897Z,4.20
2022-08-16T10:28:41.884Z,4.73
2022-08-16T10:31:16.781Z,3.77
2022-08-16T10:33:42.948Z,3.63
2022-08-16T10:36:37.823Z,4.83
2022-08-16T10:39:02.070Z,4.87
2022-08-16T10:41:30.401Z,5.90
2022-08-16T10:44:00.213Z,10.23
2022-08-16T10:46:39.413Z,3.23
2022-08-16T10:49:10.036Z,4.83
2022-08-16T10:52:01.900Z,5.63
2022-08-16T10:54:29.295Z,5.00
2022-08-16T10:56:58.530Z,3.13
2022-08-16T10:59:39.000Z,3.10
2022-08-16T11:02:56.776Z,4.50
2022-08-16T11:05:09.921Z,3.03
2022-08-16T11:07:51.365Z,4.10
2022-08-16T11:19:06.265Z,4.53
2022-08-16T11:24:42.735Z,6.30
2022-08-16T11:27:24.015Z,7.47
2022-08-16T11:30:00.926Z,3.13
2022-08-16T11:32:33.545Z,3.07
2022-08-16T11:35:10.512Z,3.10
2022-08-16T11:40:40.825Z,3.20
2022-08-16T11:43:16.968Z,3.90
2022-08-16T11:45:53.664Z,2.73
2022-08-16T11:48:24.726Z,4.13
2022-08-16T11:50:53.532Z,6.47
2022-08-16T11:53:21.997Z,5.17
2022-08-16T11:55:50.750Z,5.57
2022-08-16T11:58:24.660Z,3.10
2022-08-16T12:00:53.785Z,3.30
2022-08-16T12:03:31.409Z,2.87
2022-08-16T12:06:11.033Z,4.43
2022-08-16T12:08:55.533Z,3.47
2022-08-16T12:11:24.169Z,5.77
2022-08-16T12:13:55.063Z,3.20
2022-08-16T12:16:23.276Z,2.97
2022-08-16T12:19:00.640Z,2.90
2022-08-16T12:21:36.160Z,3.27
2022-08-16T12:24:17.169Z,5.87
2022-08-16T12:26:45.493Z,3.70
2022-08-16T12:29:13.616Z,3.83
2022-08-16T12:32:00.567Z,4.27
2022-08-16T12:34:31.061Z,2.90
2022-08-16T12:37:02.532Z,5.07
2022-08-16T12:39:31.582Z,2.50
2022-08-16T12:42:01.516Z,2.70
2022-08-16T12:44:31.289Z,2.83
2022-08-16T12:47:19.086Z,3.43
2022-08-16T12:49:49.919Z,2.50
2022-08-16T12:52:33.752Z,2.70
2022-08-16T12:55:02.996Z,4.87
2022-08-16T12:57:36.525Z,2.93
2022-08-16T13:00:08.243Z,2.67
2022-08-16T13:02:36.512Z,2.93
2022-08-16T13:05:08.122Z,2.45
2022-08-16T13:07:42.617Z,3.30
2022-08-16T13:10:37.992Z,3.88
2022-08-16T13:13:10.065Z,4.33
2022-08-16T13:15:51.542Z,4.60
2022-08-16T13:18:34.217Z,3.50
2022-08-16T13:21:05.203Z,4.43
2022-08-16T13:23:33.638Z,2.87
2022-08-16T13:26:28.216Z,3.07
2022-08-16T13:29:00.940Z,3.27
2022-08-16T13:31:29.142Z,2.60
2022-08-16T13:33:58.691Z,2.30
2022-08-16T13:39:17.375Z,4.70
2022-08-16T13:41:53.508Z,3.00
2022-08-16T13:44:22.663Z,3.25
2022-08-16T13:47:10.867Z,3.67
2022-08-16T13:49:41.384Z,2.97
2022-08-16T13:52:13.286Z,2.70
2022-08-16T13:54:41.368Z,5.10
2022-08-16T13:57:11.676Z,5.13
2022-08-16T13:59:40.940Z,2.65
2022-08-16T14:02:09.181Z,5.30
2022-08-16T14:04:42.495Z,4.13
2022-08-16T14:07:19.773Z,3.28
2022-08-16T14:09:55.066Z,3.03
2022-08-16T14:12:25.978Z,5.07
2022-08-16T14:14:57.309Z,2.97
2022-08-16T14:17:27.192Z,3.38
2022-08-16T14:19:59.906Z,2.00
2022-08-16T14:22:35.997Z,2.28
2022-08-16T14:25:16.588Z,6.40
2022-08-16T14:27:47.524Z,2.20
2022-08-16T14:30:18.068Z,2.33
2022-08-16T14:32:49.945Z,3.83
2022-08-16T14:35:22.203Z,2.33
2022-08-16T14:38:06.805Z,2.83
2022-08-16T14:40:35.550Z,2.30
2022-08-16T14:43:05.624Z,1.80
2022-08-16T14:45:35.569Z,2.60
2022-08-16T14:48:03.625Z,2.17
2022-08-16T14:50:32.829Z,2.63
2022-08-16T14:53:03.861Z,2.20
2022-08-16T14:55:36.550Z,5.65
2022-08-16T14:58:06.670Z,3.30
2022-08-16T15:00:47.213Z,4.45
2022-08-16T15:03:18.717Z,2.88
2022-08-16T15:05:49.541Z,3.92
2022-08-16T15:08:36.933Z,3.58
2022-08-16T15:11:07.995Z,2.67
2022-08-16T15:13:36.811Z,2.10
2022-08-16T15:16:05.750Z,5.85
2022-08-16T15:18:34.282Z,2.53
2022-08-16T15:21:04.184Z,3.97
2022-08-16T15:23:34.062Z,3.50
2022-08-16T15:26:04.449Z,2.92
2022-08-16T15:28:38.304Z,2.10
2022-08-16T15:31:09.211Z,3.97
2022-08-16T15:33:44.302Z,3.22
2022-08-16T15:36:19.477Z,2.75
2022-08-16T15:39:02.230Z,2.90
2022-08-16T15:42:01.254Z,2.20
2022-08-16T15:44:44.748Z,2.10
2022-08-16T15:47:25.119Z,2.78
2022-08-16T15:49:55.748Z,4.97
2022-08-16T15:52:29.156Z,2.50
2022-08-16T15:54:58.230Z,4.85
2022-08-16T15:57:28.239Z,1.92
2022-08-16T16:00:04.589Z,1.88
2022-08-16T16:02:33.622Z,2.67
2022-08-16T16:05:09.774Z,2.03
2022-08-16T16:07:55.705Z,1.95
2022-08-16T16:10:29.264Z,2.10
2022-08-16T16:13:01.701Z,4.80
2022-08-16T16:15:35.940Z,3.38
2022-08-16T16:18:10.109Z,3.42
2022-08-16T16:20:49.585Z,3.13
2022-08-16T16:23:24.600Z,2.20
2022-08-16T16:25:55.043Z,3.10
2022-08-16T16:29:06.165Z,2.22
2022-08-16T16:33:47.666Z,2.88
2022-08-16T16:36:23.213Z,3.28
2022-08-16T16:38:55.086Z,2.60
2022-08-16T16:41:27.680Z,2.60
2022-08-16T16:43:56.956Z,6.35
2022-08-16T16:46:42.782Z,4.15
2022-08-16T16:49:14.821Z,3.30
2022-08-16T16:51:49.664Z,2.80
2022-08-16T16:54:22.288Z,1.92
2022-08-16T16:56:56.925Z,2.38
2022-08-16T16:59:25.581Z,2.00
2022-08-16T17:02:38.647Z,4.13
2022-08-16T17:04:45.936Z,2.65
2022-08-16T17:07:15.356Z,3.15
2022-08-16T17:09:45.629Z,3.65
2022-08-16T17:12:25.404Z,5.15
2022-08-16T17:15:03.024Z,3.00
2022-08-16T17:17:36.298Z,2.63
2022-08-16T17:20:26.220Z,2.75
2022-08-16T17:22:57.525Z,2.88
2022-08-16T17:25:36.650Z,2.45
2022-08-16T17:28:58.930Z,3.67
2022-08-16T17:30:54.425Z,1.92
2022-08-16T17:33:23.250Z,3.33
2022-08-16T17:35:55.694Z,3.55
2022-08-16T17:38:39.150Z,3.65
2022-08-16T17:41:12.888Z,2.33
2022-08-16T17:43:44.165Z,2.45
2022-08-16T17:46:51.763Z,5.28
2022-08-16T17:49:06.363Z,2.15
2022-08-16T17:51:35.934Z,3.83
2022-08-16T17:54:03.984Z,5.00
2022-08-16T17:56:32.514Z,4.05
2022-08-16T17:59:01.112Z,2.30
2022-08-16T18:01:29.463Z,2.85
2022-08-16T18:04:08.868Z,2.57
2022-08-16T18:06:39.651Z,3.23
2022-08-16T18:09:10.323Z,2.70
2022-08-16T18:11:41.048Z,4.47
2022-08-16T18:14:11.207Z,5.03
2022-08-16T18:16:40.709Z,2.53
2022-08-16T18:19:08.827Z,3.73
2022-08-16T18:21:55.704Z,2.30
2022-08-16T18:24:25.504Z,2.20
2022-08-16T18:26:53.713Z,4.67
2022-08-16T18:29:21.737Z,2.77
2022-08-16T18:31:50.869Z,2.63
2022-08-16T18:34:20.757Z,4.33
2022-08-16T18:36:50.994Z,3.10
2022-08-16T18:39:19.067Z,3.37
2022-08-16T18:41:48.055Z,2.97
2022-08-16T18:44:25.686Z,2.27
2022-08-16T18:46:55.892Z,3.40
2022-08-16T18:49:24.190Z,3.83
2022-08-16T18:51:57.493Z,2.83
2022-08-16T18:54:26.495Z,5.27
2022-08-16T18:56:57.269Z,3.03
2022-08-16T18:59:28.074Z,4.50
2022-08-16T19:02:00.345Z,3.60
2022-08-16T19:04:56.681Z,5.20
2022-08-16T19:07:22.391Z,2.70
2022-08-16T19:09:54.594Z,5.53
2022-08-16T19:12:38.586Z,5.63
2022-08-16T19:15:14.356Z,3.50
2022-08-16T19:17:44.704Z,5.30
2022-08-16T19:20:14.571Z,4.53
2022-08-16T19:23:04.543Z,4.43
2022-08-16T19:25:47.538Z,5.73
2022-08-16T19:28:52.087Z,4.50
2022-08-16T19:31:10.708Z,3.00
2022-08-16T19:33:39.502Z,4.20
2022-08-16T19:36:11.745Z,4.87
2022-08-16T19:39:04.289Z,4.70
2022-08-16T19:41:41.573Z,4.17
2022-08-16T19:44:10.399Z,12.50
2022-08-16T19:46:44.846Z,6.67
2022-08-16T19:49:16.571Z,7.13
2022-08-16T19:51:44.939Z,7.53
2022-08-16T19:54:14.390Z,4.80
2022-08-16T19:56:42.479Z,3.53
2022-08-16T19:59:20.034Z,3.83
2022-08-16T20:01:52.543Z,4.00
2022-08-16T20:04:22.205Z,3.97
2022-08-16T20:06:52.608Z,6.47
2022-08-16T20:09:22.836Z,3.93
2022-08-16T20:11:53.118Z,4.20
2022-08-16T20:14:25.553Z,3.73
2022-08-16T20:16:56.235Z,5.90
2022-08-16T20:19:24.843Z,3.97
2022-08-16T20:21:52.844Z,4.07
2022-08-16T20:24:34.243Z,5.33
2022-08-16T20:27:04.149Z,2.90
2022-08-16T20:29:32.218Z,5.40
2022-08-16T20:32:00.478Z,4.13
2022-08-16T20:34:31.754Z,3.03
2022-08-16T20:37:01.419Z,5.23
2022-08-16T20:39:30.903Z,3.13
2022-08-16T20:41:59.109Z,3.03
2022-08-16T20:44:27.077Z,6.03
2022-08-16T20:46:55.103Z,2.97
2022-08-16T20:49:23.290Z,3.57
2022-08-16T20:51:55.847Z,5.03
2022-08-16T20:54:25.783Z,3.80
2022-08-16T20:56:55.401Z,3.43
2022-08-16T20:59:23.572Z,3.37
2022-08-16T21:01:51.805Z,3.33
2022-08-16T21:04:20.273Z,6.73
2022-08-16T21:06:54.226Z,4.07
2022-08-16T21:09:24.228Z,2.90
2022-08-16T21:11:56.067Z,4.97
2022-08-16T21:14:24.412Z,5.30
2022-08-16T21:16:52.648Z,4.97
2022-08-16T21:19:21.494Z,3.90
2022-08-16T21:21:50.850Z,2.87
2022-08-16T21:24:18.837Z,3.37
2022-08-16T21:26:55.260Z,3.47
2022-08-16T21:29:40.026Z,8.23
2022-08-16T21:32:14.320Z,5.23
2022-08-16T21:34:43.177Z,2.87
2022-08-16T21:37:12.271Z,3.00
2022-08-16T21:39:43.882Z,4.73
2022-08-16T21:42:14.940Z,2.43
2022-08-16T21:44:45.717Z,3.63
2022-08-16T21:47:13.997Z,3.73
2022-08-16T21:49:42.042Z,4.73
2022-08-16T21:52:25.918Z,4.07
2022-08-16T21:54:56.705Z,3.60
2022-08-16T21:57:25.595Z,3.43
2022-08-16T21:59:56.092Z,4.43
2022-08-16T22:02:27.882Z,3.83
2022-08-16T22:05:10.339Z,5.07
2022-08-16T22:07:38.523Z,4.73
2022-08-16T22:11:04.583Z,3.60
2022-08-16T22:12:55.755Z,4.00
2022-08-16T22:15:26.087Z,3.67
2022-08-16T22:17:55.486Z,3.63
2022-08-16T22:20:27.215Z,2.80
2022-08-16T22:23:09.488Z,2.60
2022-08-16T22:25:38.684Z,3.53
2022-08-16T22:28:07.061Z,5.50
2022-08-16T22:30:39.219Z,3.67
2022-08-16T22:33:09.828Z,2.90
2022-08-16T22:35:45.796Z,3.97
2022-08-16T22:38:56.228Z,6.30
2022-08-16T22:41:04.132Z,3.50
2022-08-16T22:43:33.301Z,4.80
2022-08-16T22:46:02.719Z,3.90
2022-08-16T22:48:32.268Z,3.97
2022-08-16T22:51:07.804Z,3.53
2022-08-16T22:53:37.492Z,3.53
2022-08-16T22:56:05.891Z,4.13
2022-08-16T22:58:36.633Z,4.73
2022-08-16T23:01:07.878Z,6.00
2022-08-16T23:03:36.989Z,2.97
2022-08-16T23:06:06.438Z,3.10
2022-08-16T23:08:39.882Z,2.97
2022-08-16T23:11:12.524Z,3.00
2022-08-16T23:13:50.032Z,2.70
2022-08-16T23:16:28.735Z,4.60
2022-08-16T23:19:03.170Z,3.20
2022-08-16T23:21:31.324Z,3.30
2022-08-16T23:23:59.410Z,4.93
2022-08-16T23:26:46.980Z,3.50
2022-08-16T23:29:24.554Z,3.73
2022-08-16T23:31:58.374Z,3.33
2022-08-16T23:34:28.125Z,2.57
2022-08-16T23:36:56.721Z,5.00
2022-08-16T23:39:25.052Z,2.93
2022-08-16T23:41:53.221Z,2.80
2022-08-16T23:44:42.249Z,3.33
2022-08-16T23:47:10.848Z,2.90
2022-08-16T23:50:00.913Z,2.70
2022-08-16T23:52:38.440Z,3.30
2022-08-16T23:55:17.271Z,3.37
2022-08-16T23:57:45.896Z,3.00
